Terminal Aerodrome Forecast
Issued by NWS Knoxville/Tri Cities, TN

Home | Current Version | Previous Version | Text Only | Print | Product List | Glossary On
Versions: 1 2 3 4 5 6 7 8 9 10 11 12 13 14 15 16 17 18 19 20 21 22 23 24 25 26 27 28 29 30
000
FTUS44 KMRX 240520
TAFTYS
TAF
KTYS 240520Z 2406/2506 00000KT P6SM BKN090
      TEMPO 2406/2409 4SM -SHRA BR OVC025
     FM240900 00000KT 5SM -SHRA BR OVC020 PROB30 2415/2416 4SM -SHRA
      BR OVC008
     FM241700 35004KT P6SM OVC022
     FM250300 VRB03KT 6SM BR OVC008=

USA.gov is the U.S. government's official web portal to all federal, state and local government web resources and services.